Time;durP1;ratioP1;P1;durP2;ratioP2;P2;SDS_P1;SDS_P2;PMS_P1;PMS_P2;Temp;Humidity;BMP_temperature;BMP_pressure;BME280_temperature;BME280_humidity;BME280_pressure;Samples;Min_cycle;Max_cycle;Signal;HPM_P1;HPM_P2
2021/12/27 00:01:12;;;;;;;7.27;5.00;;;-5.00;99.90;;;;;;5057538;28;20457;-50
2021/12/27 00:03:41;;;;;;;4.20;2.83;;;-5.00;99.90;;;;;;5057339;28;20507;-51
2021/12/27 00:06:09;;;;;;;25.00;6.77;;;-5.00;99.90;;;;;;5058033;28;20444;-53
2021/12/27 00:08:39;;;;;;;9.63;6.17;;;-5.00;99.90;;;;;;5057640;28;20479;-55
2021/12/27 00:11:06;;;;;;;4.17;3.63;;;-5.00;99.90;;;;;;5057898;28;20455;-53
2021/12/27 00:13:33;;;;;;;4.37;3.97;;;-5.00;99.90;;;;;;5057709;28;20491;-57
2021/12/27 00:15:59;;;;;;;6.77;4.17;;;-5.00;99.90;;;;;;5057843;28;20432;-54
2021/12/27 00:18:26;;;;;;;20.40;4.60;;;-5.10;99.90;;;;;;5058688;28;20661;-57
2021/12/27 00:20:54;;;;;;;4.13;3.83;;;-5.10;99.90;;;;;;5057772;28;20445;-56
2021/12/27 00:23:20;;;;;;;5.37;3.57;;;-5.10;99.90;;;;;;5057237;28;20512;-51
2021/12/27 00:25:48;;;;;;;6.50;5.17;;;-5.00;99.90;;;;;;5057529;28;20464;-54
2021/12/27 00:28:14;;;;;;;6.67;6.10;;;-5.10;99.90;;;;;;5057440;28;20445;-54
2021/12/27 00:30:41;;;;;;;4.40;3.00;;;-5.10;99.90;;;;;;5057255;28;20529;-51
2021/12/27 00:33:08;;;;;;;4.63;3.43;;;-5.00;99.90;;;;;;5057375;28;20449;-52
2021/12/27 00:35:36;;;;;;;3.77;3.47;;;-5.00;99.90;;;;;;5056975;28;20472;-51
2021/12/27 00:38:05;;;;;;;7.03;4.07;;;-5.00;99.90;;;;;;5057295;28;20449;-56
2021/12/27 00:40:32;;;;;;;6.03;3.83;;;-5.00;99.90;;;;;;5057713;28;20483;-58
2021/12/27 00:42:58;;;;;;;12.03;4.10;;;-5.00;99.90;;;;;;5057756;28;20480;-54
2021/12/27 00:45:25;;;;;;;7.27;2.83;;;-5.00;99.90;;;;;;5056618;28;20475;-53
2021/12/27 00:47:54;;;;;;;5.57;5.03;;;-4.90;99.90;;;;;;5057448;28;20464;-54
2021/12/27 00:50:20;;;;;;;9.47;5.60;;;-5.00;99.90;;;;;;5056776;28;20464;-56
2021/12/27 00:52:49;;;;;;;7.50;4.70;;;-5.00;99.90;;;;;;5056720;28;20472;-52
2021/12/27 00:55:24;;;;;;;5.43;4.00;;;-5.00;99.90;;;;;;5056405;28;20457;-55
2021/12/27 00:57:53;;;;;;;2.20;2.00;;;-5.00;99.90;;;;;;5056435;28;20448;-54
2021/12/27 01:00:22;;;;;;;10.63;8.20;;;-5.00;99.90;;;;;;5057226;28;20470;-56
2021/12/27 01:02:49;;;;;;;6.70;4.20;;;-5.00;99.90;;;;;;5057019;28;20483;-58
2021/12/27 01:05:17;;;;;;;10.10;5.17;;;-4.90;99.90;;;;;;5056963;28;20467;-55
2021/12/27 01:07:44;;;;;;;14.30;5.57;;;-4.90;99.90;;;;;;5056398;28;20440;-52
2021/12/27 01:10:31;;;;;;;9.80;6.10;;;-4.90;99.90;;;;;;5056232;28;20461;-58
2021/12/27 01:13:06;;;;;;;5.47;4.27;;;-4.90;99.90;;;;;;5056633;28;20425;-58
2021/12/27 01:15:47;;;;;;;23.13;5.97;;;-4.90;99.90;;;;;;5056312;28;20514;-54
2021/12/27 01:18:15;;;;;;;13.20;8.53;;;-4.90;99.90;;;;;;5056127;28;20435;-54
2021/12/27 01:20:42;;;;;;;15.30;6.17;;;-4.80;99.90;;;;;;5056407;28;20461;-50
2021/12/27 01:23:09;;;;;;;5.23;3.83;;;-4.80;99.90;;;;;;5055565;28;20494;-53
2021/12/27 01:25:36;;;;;;;8.20;6.20;;;-4.80;99.90;;;;;;5055930;28;20451;-54
2021/12/27 01:28:06;;;;;;;3.57;3.37;;;-4.80;99.90;;;;;;5056207;28;20429;-54
2021/12/27 01:30:37;;;;;;;20.70;4.50;;;-4.70;99.90;;;;;;5055793;28;20449;-56
2021/12/27 01:33:07;;;;;;;6.50;3.53;;;-4.70;99.90;;;;;;5056219;28;20472;-55
2021/12/27 01:35:35;;;;;;;21.20;6.33;;;-4.60;99.90;;;;;;5055997;28;20485;-57
2021/12/27 01:38:01;;;;;;;24.53;8.50;;;-4.60;99.90;;;;;;5055918;28;20507;-56
2021/12/27 01:40:30;;;;;;;4.60;3.33;;;-4.70;99.90;;;;;;5055759;28;20457;-54
2021/12/27 01:43:02;;;;;;;15.27;7.40;;;-4.60;99.90;;;;;;5055841;28;20469;-56
2021/12/27 01:45:30;;;;;;;5.17;4.70;;;-4.60;99.90;;;;;;5056281;28;20467;-56
2021/12/27 01:47:57;;;;;;;6.23;4.00;;;-4.60;99.90;;;;;;5055604;28;20452;-50
2021/12/27 01:50:24;;;;;;;9.57;5.03;;;-4.70;99.90;;;;;;5055358;28;20445;-55
2021/12/27 01:52:51;;;;;;;13.37;4.63;;;-4.70;99.90;;;;;;5056025;28;20445;-54
2021/12/27 01:55:19;;;;;;;9.90;6.60;;;-4.80;99.90;;;;;;5055845;28;20514;-51
2021/12/27 01:57:45;;;;;;;26.57;9.47;;;-4.80;99.90;;;;;;5055765;28;20460;-53
2021/12/27 02:00:13;;;;;;;7.13;3.93;;;-4.80;99.90;;;;;;5055147;28;20469;-57
2021/12/27 02:02:42;;;;;;;9.60;4.97;;;-4.80;99.90;;;;;;5055778;28;20444;-53
2021/12/27 02:05:09;;;;;;;5.73;3.90;;;-4.80;99.90;;;;;;5054598;28;20489;-54
2021/12/27 02:07:36;;;;;;;17.00;8.63;;;-4.80;99.90;;;;;;5056110;28;20449;-52
2021/12/27 02:10:03;;;;;;;7.50;3.50;;;-4.80;99.90;;;;;;5055332;28;20436;-53
2021/12/27 02:12:33;;;;;;;6.97;3.70;;;-4.80;99.90;;;;;;5055940;28;20441;-57
2021/12/27 02:15:03;;;;;;;9.63;5.60;;;-4.80;99.90;;;;;;5055240;28;20544;-57
2021/12/27 02:17:29;;;;;;;13.47;7.40;;;-4.80;99.90;;;;;;5055407;28;20449;-54
2021/12/27 02:19:57;;;;;;;7.10;4.70;;;-4.70;99.90;;;;;;5055373;28;20444;-53
2021/12/27 02:22:26;;;;;;;27.60;8.70;;;-4.70;99.90;;;;;;5055122;28;20483;-55
2021/12/27 02:24:53;;;;;;;17.17;5.53;;;-4.70;99.90;;;;;;5054927;28;20481;-54
2021/12/27 02:27:19;;;;;;;16.17;5.63;;;-4.60;99.90;;;;;;5055763;28;20457;-56
2021/12/27 02:29:46;;;;;;;6.13;5.43;;;-4.60;99.90;;;;;;5055516;28;20475;-58
2021/12/27 02:32:13;;;;;;;6.20;2.70;;;-4.60;99.90;;;;;;5055900;28;20475;-59
2021/12/27 02:34:39;;;;;;;16.87;5.77;;;-4.60;99.90;;;;;;5056559;28;20440;-55
2021/12/27 02:37:07;;;;;;;7.40;3.70;;;-4.60;99.90;;;;;;5056127;28;20445;-55
2021/12/27 02:39:34;;;;;;;9.93;4.40;;;-4.60;99.90;;;;;;5056377;28;20469;-52
2021/12/27 02:42:00;;;;;;;4.50;4.07;;;-4.60;99.90;;;;;;5056593;28;20452;-52
2021/12/27 02:44:27;;;;;;;9.23;6.03;;;-4.60;99.90;;;;;;5056327;28;20516;-52
2021/12/27 02:46:54;;;;;;;13.77;4.70;;;-4.60;99.90;;;;;;5055033;28;20468;-52
2021/12/27 02:49:20;;;;;;;8.60;4.70;;;-4.50;99.90;;;;;;5054345;28;20441;-54
2021/12/27 02:51:47;;;;;;;18.63;7.73;;;-4.50;99.90;;;;;;5054348;28;20425;-55
2021/12/27 02:54:15;;;;;;;16.13;6.03;;;-4.50;99.90;;;;;;5054721;28;20465;-52
2021/12/27 02:56:42;;;;;;;32.33;9.87;;;-4.40;99.90;;;;;;5055602;28;20469;-51
2021/12/27 02:59:08;;;;;;;13.60;5.30;;;-4.40;99.90;;;;;;5055684;28;20459;-60
2021/12/27 03:01:37;;;;;;;32.33;10.73;;;-4.40;99.90;;;;;;5056122;28;20495;-53
2021/12/27 03:04:04;;;;;;;17.30;7.03;;;-4.30;99.90;;;;;;5056036;28;20476;-54
2021/12/27 03:06:31;;;;;;;6.73;4.90;;;-4.30;99.90;;;;;;5056364;28;20467;-55
2021/12/27 03:08:58;;;;;;;5.60;3.30;;;-4.30;99.90;;;;;;5055506;28;20443;-56
2021/12/27 03:11:28;;;;;;;14.00;9.60;;;-4.30;99.90;;;;;;5055149;28;20440;-58
2021/12/27 03:13:55;;;;;;;5.83;3.97;;;-4.20;99.90;;;;;;5054679;28;20479;-56
2021/12/27 03:16:24;;;;;;;10.87;9.43;;;-4.20;99.90;;;;;;5054091;28;20468;-54
2021/12/27 03:18:52;;;;;;;9.83;3.43;;;-4.10;99.90;;;;;;5053349;28;20436;-55
2021/12/27 03:21:22;;;;;;;12.23;7.47;;;-4.10;99.90;;;;;;5054103;28;20456;-56
2021/12/27 03:23:49;;;;;;;20.60;6.50;;;-4.10;99.90;;;;;;5053542;28;20488;-53
2021/12/27 03:26:20;;;;;;;12.40;6.20;;;-4.10;99.90;;;;;;5053624;28;20449;-57
2021/12/27 03:28:48;;;;;;;7.10;3.10;;;-4.10;99.90;;;;;;5053799;28;20483;-57
2021/12/27 03:31:16;;;;;;;8.00;5.17;;;-4.10;99.90;;;;;;5053743;28;20916;-54
2021/12/27 03:33:43;;;;;;;19.13;5.57;;;-4.10;99.90;;;;;;5053854;28;20518;-56
2021/12/27 03:36:10;;;;;;;3.90;3.50;;;-4.10;99.90;;;;;;5053893;28;20462;-54
2021/12/27 03:38:39;;;;;;;12.53;7.00;;;-4.10;99.90;;;;;;5053553;28;20457;-53
2021/12/27 03:41:10;;;;;;;3.67;2.63;;;-4.10;99.90;;;;;;5053658;28;20465;-54
2021/12/27 03:43:36;;;;;;;6.10;5.00;;;-4.00;99.90;;;;;;5053790;28;20455;-53
2021/12/27 03:46:04;;;;;;;6.77;5.67;;;-4.00;99.90;;;;;;5054200;28;20452;-56
2021/12/27 03:48:31;;;;;;;11.03;6.13;;;-4.00;99.90;;;;;;5054431;28;20457;-49
2021/12/27 03:50:58;;;;;;;28.40;7.73;;;-4.00;99.90;;;;;;5055770;28;20495;-54
2021/12/27 03:53:25;;;;;;;6.13;5.57;;;-3.90;99.90;;;;;;5054718;28;20476;-49
2021/12/27 03:55:55;;;;;;;13.03;5.90;;;-3.90;99.90;;;;;;5053293;28;20431;-55
2021/12/27 03:58:28;;;;;;;8.10;6.90;;;-3.90;99.90;;;;;;5054123;28;20443;-57
2021/12/27 04:01:13;;;;;;;14.53;4.10;;;-3.90;99.90;;;;;;5053084;28;20429;-54
2021/12/27 04:03:43;;;;;;;4.27;3.53;;;-3.90;99.90;;;;;;5053082;28;20469;-55
2021/12/27 04:06:11;;;;;;;8.43;4.43;;;-3.90;99.90;;;;;;5053062;28;20460;-52
2021/12/27 04:08:38;;;;;;;11.33;5.63;;;-3.80;99.90;;;;;;5053441;28;20468;-57
2021/12/27 04:11:05;;;;;;;8.53;5.77;;;-3.80;99.90;;;;;;5053430;28;20479;-58
2021/12/27 04:13:33;;;;;;;9.53;4.53;;;-3.80;99.90;;;;;;5054469;28;20448;-55
2021/12/27 04:15:59;;;;;;;6.20;5.60;;;-3.80;99.90;;;;;;5053068;28;20451;-57
2021/12/27 04:18:27;;;;;;;8.80;6.30;;;-3.80;99.90;;;;;;5053677;28;20444;-56
2021/12/27 04:20:55;;;;;;;6.30;4.93;;;-3.80;99.90;;;;;;5052878;28;20429;-57
2021/12/27 04:23:22;;;;;;;17.70;6.53;;;-3.70;99.90;;;;;;5053371;28;20456;-57
2021/12/27 04:25:48;;;;;;;21.30;5.57;;;-3.60;99.90;;;;;;5053191;28;20488;-54
2021/12/27 04:28:19;;;;;;;16.27;7.67;;;-3.70;99.90;;;;;;5053528;28;20448;-55
2021/12/27 04:30:47;;;;;;;6.40;4.47;;;-3.70;99.90;;;;;;5056530;28;20472;-57
2021/12/27 04:33:14;;;;;;;13.33;6.80;;;-3.80;99.90;;;;;;5056812;28;20502;-54
2021/12/27 04:35:42;;;;;;;7.00;4.33;;;-3.80;99.90;;;;;;5056486;28;20491;-56
2021/12/27 04:38:10;;;;;;;21.33;6.40;;;-3.70;99.90;;;;;;5056668;28;20441;-55
2021/12/27 04:40:40;;;;;;;8.03;5.77;;;-3.70;99.90;;;;;;5056640;28;20472;-55
2021/12/27 04:43:10;;;;;;;11.20;6.73;;;-3.70;99.90;;;;;;5056700;28;20455;-53
2021/12/27 04:45:38;;;;;;;7.57;5.47;;;-3.80;99.90;;;;;;5056004;28;20473;-53
2021/12/27 04:48:05;;;;;;;5.77;4.20;;;-3.80;99.90;;;;;;5056186;28;20491;-57
2021/12/27 04:50:32;;;;;;;18.97;6.57;;;-3.70;99.90;;;;;;5056728;28;20444;-57
2021/12/27 04:52:59;;;;;;;26.83;8.30;;;-3.70;99.90;;;;;;5056291;28;20499;-52
2021/12/27 04:55:29;;;;;;;30.53;5.33;;;-3.70;99.90;;;;;;5055977;28;20463;-53
2021/12/27 04:57:57;;;;;;;7.33;5.17;;;-3.70;99.90;;;;;;5056352;28;21020;-56
2021/12/27 05:00:24;;;;;;;9.40;5.40;;;-3.70;99.90;;;;;;5056384;28;20444;-53
2021/12/27 05:02:50;;;;;;;9.20;4.73;;;-3.70;99.90;;;;;;5055684;28;20499;-53
2021/12/27 05:05:17;;;;;;;4.83;4.43;;;-3.70;99.90;;;;;;5056270;28;20477;-53
2021/12/27 05:07:44;;;;;;;14.83;7.90;;;-3.60;99.90;;;;;;5055601;28;20456;-53
2021/12/27 05:10:12;;;;;;;7.57;6.27;;;-3.60;99.90;;;;;;5055527;28;20491;-56
2021/12/27 05:12:40;;;;;;;5.70;4.83;;;-3.60;99.90;;;;;;5055625;28;20460;-54
2021/12/27 05:15:07;;;;;;;18.83;7.03;;;-3.70;99.90;;;;;;5055477;28;20465;-52
2021/12/27 05:17:35;;;;;;;15.13;6.60;;;-3.60;99.90;;;;;;5056121;28;20475;-58
2021/12/27 05:20:05;;;;;;;19.00;6.67;;;-3.60;99.90;;;;;;5055268;28;20491;-55
2021/12/27 05:22:32;;;;;;;4.70;4.03;;;-3.60;99.90;;;;;;5055433;28;20437;-56
2021/12/27 05:24:59;;;;;;;20.27;7.60;;;-3.60;99.90;;;;;;5055844;28;20514;-55
2021/12/27 05:27:25;;;;;;;9.17;6.67;;;-3.60;99.90;;;;;;5053287;28;20465;-51
2021/12/27 05:29:53;;;;;;;12.60;5.43;;;-3.60;99.90;;;;;;5056150;28;20454;-51
2021/12/27 05:32:20;;;;;;;14.57;5.77;;;-3.60;99.90;;;;;;5055517;28;20475;-54
2021/12/27 05:34:47;;;;;;;5.23;4.73;;;-3.50;99.90;;;;;;5055740;28;20464;-60
2021/12/27 05:37:14;;;;;;;13.20;6.17;;;-3.50;99.90;;;;;;5056403;28;20476;-56
2021/12/27 05:39:41;;;;;;;7.00;6.13;;;-3.50;99.90;;;;;;5055792;28;20475;-53
2021/12/27 05:42:09;;;;;;;7.83;4.13;;;-3.40;99.90;;;;;;5055038;28;20445;-54
2021/12/27 05:44:36;;;;;;;11.50;8.00;;;-3.40;99.90;;;;;;5055783;28;20571;-57
2021/12/27 05:47:04;;;;;;;9.23;6.30;;;-3.40;99.90;;;;;;5055272;28;20480;-57
2021/12/27 05:49:31;;;;;;;9.83;5.37;;;-3.40;99.90;;;;;;5055396;28;20476;-57
2021/12/27 05:51:58;;;;;;;23.57;5.10;;;-3.30;99.90;;;;;;5055618;28;20457;-59
2021/12/27 05:54:24;;;;;;;20.03;9.03;;;-3.40;99.90;;;;;;5054760;28;20469;-56
2021/12/27 05:56:51;;;;;;;9.90;4.63;;;-3.30;99.90;;;;;;5054419;28;20439;-55
2021/12/27 05:59:18;;;;;;;9.67;5.53;;;-3.30;99.90;;;;;;5054854;28;20469;-54
2021/12/27 06:01:46;;;;;;;12.13;6.77;;;-3.20;99.90;;;;;;5055530;28;20475;-61
2021/12/27 06:04:14;;;;;;;8.37;6.80;;;-3.20;99.90;;;;;;5055791;28;20446;-53
2021/12/27 06:06:40;;;;;;;14.90;7.77;;;-3.10;99.90;;;;;;5055219;28;20438;-57
2021/12/27 06:09:07;;;;;;;9.23;4.67;;;-3.10;99.90;;;;;;5054436;28;20457;-56
2021/12/27 06:11:34;;;;;;;13.80;5.60;;;-3.10;99.90;;;;;;5054432;28;20483;-56
2021/12/27 06:14:01;;;;;;;15.90;7.40;;;-3.10;99.90;;;;;;5054659;28;20445;-55
2021/12/27 06:16:27;;;;;;;23.00;9.93;;;-3.00;99.90;;;;;;5054704;28;20465;-54
2021/12/27 06:18:54;;;;;;;25.53;6.03;;;-2.90;99.90;;;;;;5053959;28;20449;-55
2021/12/27 06:21:22;;;;;;;8.50;6.13;;;-2.90;99.90;;;;;;5053950;28;20475;-56
2021/12/27 06:23:49;;;;;;;11.50;5.07;;;-2.90;99.90;;;;;;5054324;28;20426;-54
2021/12/27 06:26:16;;;;;;;10.57;5.10;;;-2.90;99.90;;;;;;5053842;28;20536;-55
2021/12/27 06:28:42;;;;;;;7.73;4.20;;;-2.90;99.90;;;;;;5054265;28;20449;-54
2021/12/27 06:31:09;;;;;;;10.90;5.40;;;-2.80;99.90;;;;;;5054809;28;20433;-59
2021/12/27 06:33:36;;;;;;;17.20;8.37;;;-2.80;99.90;;;;;;5053804;28;20468;-58
2021/12/27 06:36:03;;;;;;;9.27;5.13;;;-2.80;99.90;;;;;;5053566;28;20434;-55
2021/12/27 06:38:31;;;;;;;15.90;5.40;;;-2.80;99.90;;;;;;5055436;28;20807;-55
2021/12/27 06:41:00;;;;;;;38.13;9.67;;;-2.80;99.90;;;;;;5052917;28;20480;-57
2021/12/27 06:43:28;;;;;;;19.97;5.20;;;-2.70;99.90;;;;;;5053382;28;20443;-55
2021/12/27 06:45:54;;;;;;;16.80;5.07;;;-2.70;99.90;;;;;;5053710;28;20501;-56
2021/12/27 06:48:21;;;;;;;16.67;7.57;;;-2.70;99.90;;;;;;5053859;28;20475;-54
2021/12/27 06:50:48;;;;;;;23.07;9.63;;;-2.70;99.90;;;;;;5054411;28;20467;-52
2021/12/27 06:53:15;;;;;;;11.13;6.70;;;-2.70;99.90;;;;;;5053836;28;20475;-53
2021/12/27 06:55:44;;;;;;;9.70;6.90;;;-2.70;99.90;;;;;;5053673;28;20465;-56
2021/12/27 06:58:11;;;;;;;6.40;4.77;;;-2.70;99.90;;;;;;5054786;28;20479;-57
2021/12/27 07:00:38;;;;;;;19.87;4.90;;;-2.70;99.90;;;;;;5053184;28;20524;-58
2021/12/27 07:03:05;;;;;;;13.63;6.50;;;-2.70;99.90;;;;;;5052721;28;20421;-59
2021/12/27 07:05:32;;;;;;;15.70;7.30;;;-2.60;99.90;;;;;;5053408;28;20593;-58
2021/12/27 07:07:59;;;;;;;8.47;4.63;;;-2.60;99.90;;;;;;5053667;28;20480;-57
2021/12/27 07:10:26;;;;;;;22.50;7.10;;;-2.60;99.90;;;;;;5052859;28;20446;-56
2021/12/27 07:12:54;;;;;;;12.73;6.73;;;-2.60;99.90;;;;;;5052590;28;20467;-58
2021/12/27 07:15:21;;;;;;;10.13;5.77;;;-2.50;99.90;;;;;;5052952;28;20457;-58
2021/12/27 07:17:48;;;;;;;11.77;6.53;;;-2.60;99.90;;;;;;5052685;28;20477;-56
2021/12/27 07:20:15;;;;;;;22.80;9.43;;;-2.60;99.90;;;;;;5052452;28;20502;-55
2021/12/27 07:22:41;;;;;;;18.17;6.70;;;-2.50;99.90;;;;;;5052260;28;20450;-56
2021/12/27 07:25:09;;;;;;;13.03;7.20;;;-2.50;99.90;;;;;;5052151;28;20462;-56
2021/12/27 07:27:35;;;;;;;18.90;4.53;;;-2.40;99.90;;;;;;5052315;28;20473;-54
2021/12/27 07:30:06;;;;;;;15.67;6.40;;;-2.40;99.90;;;;;;5052208;28;20448;-55
2021/12/27 07:32:33;;;;;;;12.43;5.40;;;-2.40;99.90;;;;;;5052156;28;20443;-54
2021/12/27 07:35:00;;;;;;;14.27;5.83;;;-2.40;99.90;;;;;;5052487;28;20470;-57
2021/12/27 07:37:26;;;;;;;16.47;5.87;;;-2.40;99.90;;;;;;5052857;28;20468;-53
2021/12/27 07:39:53;;;;;;;7.37;5.40;;;-2.40;99.90;;;;;;5053606;28;20466;-57
2021/12/27 07:42:20;;;;;;;12.93;7.60;;;-2.40;99.90;;;;;;5053175;28;20427;-54
2021/12/27 07:44:47;;;;;;;16.47;7.47;;;-2.40;99.90;;;;;;5052637;28;20512;-58
2021/12/27 07:47:15;;;;;;;9.30;7.00;;;-2.40;99.90;;;;;;5052844;28;20456;-56
2021/12/27 07:49:42;;;;;;;5.60;4.43;;;-2.50;99.90;;;;;;5053174;28;20444;-54
2021/12/27 07:52:08;;;;;;;13.13;9.70;;;-2.40;99.90;;;;;;5052270;28;20473;-53
2021/12/27 07:54:36;;;;;;;20.13;6.90;;;-2.50;99.90;;;;;;5053072;28;20456;-57
2021/12/27 07:57:03;;;;;;;19.30;7.23;;;-2.50;99.90;;;;;;5053418;28;20495;-55
2021/12/27 07:59:30;;;;;;;23.63;6.60;;;-2.50;99.90;;;;;;5052205;28;20442;-55
2021/12/27 08:01:59;;;;;;;13.20;6.30;;;-2.40;99.90;;;;;;5051456;28;20471;-58
2021/12/27 08:04:27;;;;;;;26.97;7.37;;;-2.30;99.90;;;;;;5054072;28;20440;-58
2021/12/27 08:06:53;;;;;;;10.40;5.00;;;-2.30;99.90;;;;;;5055041;28;20488;-57
2021/12/27 08:09:20;;;;;;;17.70;9.20;;;-2.20;99.90;;;;;;5054952;28;20442;-55
2021/12/27 08:11:48;;;;;;;16.27;5.80;;;-2.20;99.90;;;;;;5055322;28;20452;-57
2021/12/27 08:14:15;;;;;;;11.77;5.63;;;-2.20;99.90;;;;;;5055176;28;20508;-57
2021/12/27 08:16:42;;;;;;;14.23;7.37;;;-2.10;99.90;;;;;;5058933;28;20446;-60
2021/12/27 08:19:08;;;;;;;8.87;5.77;;;-2.10;99.90;;;;;;5059328;28;20999;-58
2021/12/27 08:21:37;;;;;;;14.00;6.80;;;-2.00;99.90;;;;;;5059789;28;20429;-54
2021/12/27 08:24:05;;;;;;;12.77;6.37;;;-2.00;99.90;;;;;;5058728;28;20535;-52
2021/12/27 08:26:32;;;;;;;10.53;5.73;;;-2.00;99.90;;;;;;5059657;28;20454;-58
2021/12/27 08:29:01;;;;;;;36.63;10.10;;;-1.90;99.90;;;;;;5059545;28;20502;-52
2021/12/27 08:31:27;;;;;;;15.10;6.73;;;-1.90;99.90;;;;;;5055005;28;20480;-55
2021/12/27 08:33:54;;;;;;;15.73;8.73;;;-1.90;99.90;;;;;;5054874;28;20470;-56
2021/12/27 08:36:21;;;;;;;13.67;7.77;;;-1.80;99.90;;;;;;5054713;28;20466;-56
2021/12/27 08:38:50;;;;;;;18.40;9.97;;;-1.90;99.90;;;;;;5054475;28;20457;-53
2021/12/27 08:41:18;;;;;;;13.03;7.30;;;-1.80;99.90;;;;;;5055798;28;20467;-56
2021/12/27 08:43:45;;;;;;;19.20;7.40;;;-1.80;99.90;;;;;;5055559;28;20454;-54
2021/12/27 08:46:12;;;;;;;12.83;8.20;;;-1.80;99.90;;;;;;5054846;28;20486;-56
2021/12/27 08:48:40;;;;;;;37.50;6.80;;;-1.80;99.90;;;;;;5056364;28;20441;-54
2021/12/27 08:51:07;;;;;;;21.93;7.90;;;-1.80;99.90;;;;;;5058487;28;20444;-54
2021/12/27 08:53:36;;;;;;;11.33;5.43;;;-1.80;99.90;;;;;;5056498;28;20509;-54
2021/12/27 08:56:04;;;;;;;24.43;7.13;;;-1.80;99.90;;;;;;5054003;28;20528;-58
2021/12/27 08:58:31;;;;;;;14.53;6.70;;;-1.70;99.90;;;;;;5052530;28;20470;-54
2021/12/27 09:00:58;;;;;;;32.17;8.87;;;-1.70;99.90;;;;;;5049018;28;20457;-57
2021/12/27 09:03:24;;;;;;;20.63;6.33;;;-1.70;99.90;;;;;;5052559;28;20478;-56
2021/12/27 09:05:51;;;;;;;16.00;6.50;;;-1.60;99.90;;;;;;5052348;28;20508;-57
2021/12/27 09:08:21;;;;;;;22.77;7.67;;;-1.50;99.90;;;;;;5051884;28;20879;-57
2021/12/27 09:10:47;;;;;;;9.50;7.97;;;-1.40;99.90;;;;;;5057118;28;20434;-54
2021/12/27 09:13:15;;;;;;;12.30;6.93;;;-1.40;99.90;;;;;;5057416;28;20504;-56
2021/12/27 09:15:42;;;;;;;22.83;7.57;;;-1.40;99.90;;;;;;5058229;28;20450;-63
2021/12/27 09:18:09;;;;;;;23.47;8.00;;;-1.30;99.90;;;;;;5058712;28;20466;-64
2021/12/27 09:20:36;;;;;;;23.73;7.37;;;-1.30;99.90;;;;;;5058589;28;20449;-60
2021/12/27 09:23:03;;;;;;;22.13;8.57;;;-1.30;99.90;;;;;;5057913;28;20474;-52
2021/12/27 09:25:30;;;;;;;13.53;6.83;;;-1.20;99.90;;;;;;5057841;28;20458;-55
2021/12/27 09:27:58;;;;;;;11.27;7.30;;;-1.20;99.90;;;;;;5057846;28;20454;-53
2021/12/27 09:30:26;;;;;;;12.73;7.40;;;-1.10;99.90;;;;;;5057929;28;20443;-51
2021/12/27 09:32:53;;;;;;;29.10;7.67;;;-1.00;99.90;;;;;;5057836;28;20427;-52
2021/12/27 09:35:20;;;;;;;10.93;6.23;;;-0.90;99.90;;;;;;5057936;28;20424;-52
2021/12/27 09:37:47;;;;;;;13.50;8.30;;;-0.90;99.90;;;;;;5057786;28;20482;-55
2021/12/27 09:40:18;;;;;;;19.17;8.27;;;-0.90;99.90;;;;;;5057870;28;20461;-51
2021/12/27 09:42:45;;;;;;;15.73;8.27;;;-0.90;99.90;;;;;;5057373;28;20510;-54
2021/12/27 09:45:11;;;;;;;24.03;8.30;;;-0.90;99.90;;;;;;5057518;28;20439;-52
2021/12/27 09:47:40;;;;;;;12.33;7.00;;;-0.90;99.90;;;;;;5057675;28;20505;-53
2021/12/27 09:50:09;;;;;;;35.30;9.57;;;-0.90;99.90;;;;;;5057791;28;20446;-52
2021/12/27 09:52:36;;;;;;;19.47;7.50;;;-0.90;99.90;;;;;;5057699;28;20458;-59
2021/12/27 09:55:04;;;;;;;14.83;6.37;;;-0.90;99.90;;;;;;5057466;28;20447;-52
2021/12/27 09:57:31;;;;;;;17.67;7.40;;;-0.90;99.90;;;;;;5057613;28;20460;-53
2021/12/27 09:59:58;;;;;;;21.60;10.00;;;-0.80;99.90;;;;;;5057806;28;20481;-53
2021/12/27 10:02:26;;;;;;;19.70;7.80;;;-0.80;99.90;;;;;;5057872;28;20447;-52
2021/12/27 10:04:57;;;;;;;17.67;7.97;;;-0.80;99.90;;;;;;5057234;28;20452;-57
2021/12/27 10:07:24;;;;;;;24.90;7.40;;;-0.70;99.90;;;;;;5057448;28;20472;-60
2021/12/27 10:09:55;;;;;;;21.47;8.17;;;-0.70;99.90;;;;;;5057626;28;20475;-49
2021/12/27 10:12:23;;;;;;;11.00;7.40;;;-0.70;99.90;;;;;;5057601;28;20443;-54
2021/12/27 10:14:55;;;;;;;17.67;8.30;;;-0.60;99.90;;;;;;5057343;28;20464;-50
2021/12/27 10:17:23;;;;;;;24.00;10.27;;;-0.60;99.90;;;;;;5054255;28;20425;-55
2021/12/27 10:19:50;;;;;;;15.30;7.53;;;-0.50;99.90;;;;;;5046750;28;20480;-52
2021/12/27 10:22:18;;;;;;;20.67;7.63;;;-0.40;99.90;;;;;;5046099;28;20506;-51
2021/12/27 10:24:45;;;;;;;16.93;7.40;;;-0.30;99.90;;;;;;5046414;28;20479;-53
2021/12/27 10:27:13;;;;;;;25.90;10.23;;;-0.20;99.90;;;;;;5045452;28;20540;-51
2021/12/27 10:29:41;;;;;;;23.60;9.73;;;-0.10;99.90;;;;;;5046371;28;20464;-52
2021/12/27 10:32:10;;;;;;;25.67;9.40;;;0.00;99.90;;;;;;5046474;28;20433;-50
2021/12/27 10:34:39;;;;;;;37.90;10.00;;;0.10;99.90;;;;;;5047446;28;20458;-52
2021/12/27 10:37:17;;;;;;;30.67;9.57;;;0.30;99.90;;;;;;5047682;28;20426;-53
2021/12/27 10:39:54;;;;;;;28.47;9.90;;;0.40;99.90;;;;;;5044322;28;20436;-54
2021/12/27 10:42:24;;;;;;;17.50;10.37;;;0.60;99.90;;;;;;5044025;28;20438;-50
2021/12/27 10:44:53;;;;;;;11.20;6.90;;;0.80;99.90;;;;;;5048376;28;20440;-51
2021/12/27 10:47:32;;;;;;;23.27;10.23;;;0.80;99.90;;;;;;5043544;28;20558;-50
2021/12/27 10:50:03;;;;;;;16.53;11.47;;;0.90;99.90;;;;;;5044074;28;20435;-51
2021/12/27 10:52:49;;;;;;;24.53;10.50;;;0.80;99.90;;;;;;5045974;28;20475;-52
2021/12/27 10:55:20;;;;;;;18.63;9.17;;;0.70;99.90;;;;;;5054082;28;20510;-47
2021/12/27 10:57:47;;;;;;;23.73;9.60;;;0.70;99.90;;;;;;5053159;28;20454;-53
2021/12/27 11:00:29;;;;;;;22.57;8.23;;;0.70;99.90;;;;;;5044837;28;20452;-49
2021/12/27 11:02:59;;;;;;;31.37;10.33;;;0.70;99.90;;;;;;5050954;28;20448;-46
2021/12/27 11:05:27;;;;;;;30.17;9.77;;;0.60;99.90;;;;;;5055170;28;20433;-49
2021/12/27 11:07:59;;;;;;;31.53;13.30;;;0.60;99.90;;;;;;5054758;28;20528;-51
2021/12/27 11:10:29;;;;;;;17.03;9.13;;;0.70;99.90;;;;;;5048475;28;20804;-50
2021/12/27 11:12:59;;;;;;;24.03;9.60;;;0.70;99.90;;;;;;5044803;28;20815;-47
2021/12/27 11:15:27;;;;;;;21.13;9.70;;;0.70;99.90;;;;;;5047503;28;20448;-51
2021/12/27 11:17:55;;;;;;;22.47;10.17;;;0.70;99.90;;;;;;5054166;28;20417;-47
2021/12/27 11:20:22;;;;;;;19.30;8.97;;;0.70;99.90;;;;;;5049260;28;20440;-47
2021/12/27 11:22:52;;;;;;;23.60;12.27;;;0.80;99.90;;;;;;5048188;28;20479;-50
2021/12/27 11:25:27;;;;;;;22.00;8.63;;;0.80;99.90;;;;;;5053962;28;20539;-51
2021/12/27 11:27:56;;;;;;;19.33;8.90;;;0.80;99.90;;;;;;5055026;28;20448;-50
2021/12/27 11:30:26;;;;;;;25.17;10.20;;;0.90;99.90;;;;;;5051739;28;20507;-51
2021/12/27 11:33:04;;;;;;;27.93;9.70;;;0.90;99.90;;;;;;5048064;28;20467;-50
2021/12/27 11:35:33;;;;;;;27.70;9.90;;;0.90;99.90;;;;;;5044311;28;20452;-49
2021/12/27 11:38:01;;;;;;;24.83;10.30;;;1.00;99.90;;;;;;5047910;28;20456;-49
2021/12/27 11:40:40;;;;;;;25.00;11.60;;;1.10;99.90;;;;;;5051475;28;20460;-46
2021/12/27 11:43:08;;;;;;;17.67;10.70;;;1.10;99.90;;;;;;5057679;28;20441;-47
2021/12/27 11:45:41;;;;;;;24.30;11.27;;;1.20;99.90;;;;;;5059580;28;20451;-49
2021/12/27 11:48:10;;;;;;;22.17;9.30;;;1.30;99.90;;;;;;5059869;28;20472;-47
2021/12/27 11:51:07;;;;;;;16.47;10.63;;;1.30;99.90;;;;;;5059800;28;20455;-48
2021/12/27 11:53:36;;;;;;;21.23;10.10;;;1.20;99.90;;;;;;5059593;28;20467;-50
2021/12/27 11:56:08;;;;;;;36.47;10.33;;;1.20;99.90;;;;;;5059333;28;20448;-46
2021/12/27 11:58:38;;;;;;;18.00;10.00;;;1.20;99.90;;;;;;5059809;28;20444;-49
2021/12/27 12:01:07;;;;;;;23.43;11.33;;;1.20;99.90;;;;;;5059566;28;20459;-56
2021/12/27 12:03:44;;;;;;;24.40;9.10;;;1.20;99.90;;;;;;5058134;28;20432;-49
2021/12/27 12:06:42;;;;;;;24.13;12.57;;;1.30;99.90;;;;;;5051076;28;20431;-53
2021/12/27 12:09:15;;;;;;;24.03;10.03;;;1.30;99.90;;;;;;5045104;28;20437;-49
2021/12/27 12:11:42;;;;;;;20.23;8.93;;;1.40;99.90;;;;;;5045298;28;20459;-49
2021/12/27 12:14:28;;;;;;;23.37;10.60;;;1.40;99.90;;;;;;5051890;28;20440;-46
2021/12/27 12:16:55;;;;;;;24.07;9.07;;;1.50;99.90;;;;;;5059088;28;20437;-51
2021/12/27 12:19:36;;;;;;;25.00;10.97;;;1.40;99.90;;;;;;5046483;28;20495;-49
2021/12/27 12:22:04;;;;;;;15.47;9.70;;;1.40;99.90;;;;;;5050949;28;20421;-50
2021/12/27 12:24:30;;;;;;;20.83;10.90;;;1.50;99.90;;;;;;5046214;28;20503;-48
2021/12/27 12:27:00;;;;;;;19.80;9.93;;;1.50;99.90;;;;;;5045969;28;20495;-48
2021/12/27 12:29:29;;;;;;;15.43;7.60;;;1.40;99.90;;;;;;5046470;28;20455;-53
2021/12/27 12:31:58;;;;;;;19.73;10.80;;;1.50;99.90;;;;;;5049518;28;20456;-52
2021/12/27 12:34:26;;;;;;;24.70;11.20;;;1.50;99.90;;;;;;5047210;28;20451;-51
2021/12/27 12:36:57;;;;;;;11.60;6.80;;;1.50;99.90;;;;;;5045345;28;20444;-50
2021/12/27 12:39:26;;;;;;;19.60;8.13;;;1.50;99.90;;;;;;5044154;28;20432;-53
2021/12/27 12:42:06;;;;;;;32.93;12.13;;;1.60;99.90;;;;;;5044924;28;20456;-48
2021/12/27 12:44:34;;;;;;;13.57;7.10;;;1.60;99.90;;;;;;5048843;28;21002;-50
2021/12/27 12:47:01;;;;;;;18.70;8.77;;;1.60;99.90;;;;;;5045310;28;20480;-53